Latest Weather Observations for North Head

IDN60901

Issued at 2:21 am EST Thursday 25 April 2019 (issued every 10 minutes, with the page automatically refreshed every 10 minutes)

About weather observations | Map of Sydney area stations | Latest observations for Sydney area | Other Formats
Station Details ID: 066197 Name: NORTH HEAD Lat: -33.82 Lon: 151.30 Height: 90.0 m
Data from the previous 72 hours. | See also: Recent months at North Head
Date/Time
EST
Temp
°C
App
Temp
°C
Dew
Point
°C
Rel
Hum
%
Delta-T
°C
Wind Press
QNH
hPa
Press
MSL
hPa
Rain since
9am
mm
Dir  Spd
km/h
Gust
km/h
Spd
kts
Gust
kts
25/02:00am - - - - - WNW 6 7 3 4 - - -
25/01:30am - - - - - NW 6 7 3 4 - - -
25/01:00am - - - - - N 9 11 5 6 - - -
25/12:30am - - - - - N 9 15 5 8 - - -
25/12:00am - - - - - N 13 19 7 10 - - -
 
Date/Time
EST
Temp
°C
App
Temp
°C
Dew
Point
°C
Rel
Hum
%
Delta-T
°C
Wind Press
QNH
hPa
Press
MSL
hPa
Rain since
9am
mm
Dir  Spd
km/h
Gust
km/h
Spd
kts
Gust
kts
24/11:30pm - - - - - N 11 17 6 9 - - -
24/11:00pm - - - - - N 13 17 7 9 - - -
24/10:30pm - - - - - N 13 19 7 10 - - -
24/10:00pm - - - - - N 13 15 7 8 - - -
24/09:30pm - - - - - N 13 17 7 9 - - -
24/09:00pm - - - - - N 13 19 7 10 - - -
24/08:30pm - - - - - N 13 20 7 11 - - -
24/08:00pm - - - - - N 15 19 8 10 - - -
24/07:30pm - - - - - NNE 17 24 9 13 - - -
24/07:00pm - - - - - NNE 17 24 9 13 - - -
24/06:30pm - - - - - NNE 17 26 9 14 - - -
24/06:00pm - - - - - NE 15 24 8 13 - - -
24/05:30pm - - - - - NE 17 24 9 13 - - -
24/05:00pm - - - - - NE 17 26 9 14 - - -
24/04:30pm - - - - - NE 15 24 8 13 - - -
24/04:00pm - - - - - NE 13 20 7 11 - - -
24/03:30pm - - - - - ENE 13 20 7 11 - - -
24/03:00pm - - - - - ENE 13 22 7 12 - - -
24/02:30pm - - - - - ENE 13 22 7 12 - - -
24/02:00pm - - - - - NE 13 19 7 10 - - -
24/01:30pm - - - - - NE 9 19 5 10 - - -
24/01:00pm - - - - - NE 13 19 7 10 - - -
24/12:30pm - - - - - NE 9 17 5 9 - - -
24/12:00pm - - - - - NE 11 17 6 9 - - -
24/11:30am - - - - - NE 13 19 7 10 - - -
24/11:00am - - - - - NE 9 15 5 8 - - -
24/10:30am - - - - - NNE 9 15 5 8 - - -
24/10:00am - - - - - N 9 15 5 8 - - -
24/09:30am - - - - - N 9 15 5 8 - - -
24/09:00am - - - - - WNW 6 9 3 5 - - -
24/08:30am - - - - - WNW 7 9 4 5 - - -
24/08:00am - - - - - W 7 9 4 5 - - -
24/07:30am - - - - - WNW 7 7 4 4 - - -
24/07:00am - - - - - W 9 9 5 5 - - -
24/06:30am - - - - - W 9 11 5 6 - - -
24/06:00am - - - - - NW 6 7 3 4 - - -
24/05:30am - - - - - NW 7 9 4 5 - - -
24/05:00am - - - - - N 7 9 4 5 - - -
24/04:30am - - - - - NE 15 20 8 11 - - -
24/04:00am - - - - - ENE 13 20 7 11 - - -
24/03:30am - - - - - ENE 11 17 6 9 - - -
24/03:00am - - - - - ENE 11 19 6 10 - - -
24/02:30am - - - - - ENE 9 15 5 8 - - -
24/02:00am - - - - - NE 11 17 6 9 - - -
24/01:30am - - - - - NE 13 19 7 10 - - -
24/01:00am - - - - - NE 15 20 8 11 - - -
24/12:30am - - - - - NE 15 22 8 12 - - -
24/12:00am - - - - - ENE 15 24 8 13 - - -
 
Date/Time
EST
Temp
°C
App
Temp
°C
Dew
Point
°C
Rel
Hum
%
Delta-T
°C
Wind Press
QNH
hPa
Press
MSL
hPa
Rain since
9am
mm
Dir  Spd
km/h
Gust
km/h
Spd
kts
Gust
kts
23/11:30pm - - - - - ENE 15 24 8 13 - - -
23/11:00pm - - - - - ENE 19 28 10 15 - - -
23/10:30pm - - - - - ENE 15 22 8 12 - - -
23/10:00pm - - - - - NE 11 17 6 9 - - -
23/09:30pm - - - - - ENE 9 13 5 7 - - -
23/09:00pm - - - - - ENE 13 19 7 10 - - -
23/08:30pm - - - - - ENE 15 26 8 14 - - -
23/08:00pm - - - - - NE 13 20 7 11 - - -
23/07:30pm - - - - - E 7 13 4 7 - - -
23/07:00pm - - - - - ESE 9 13 5 7 - - -
23/06:30pm - - - - - ESE 13 19 7 10 - - -
23/06:00pm - - - - - ESE 11 20 6 11 - - -
23/05:30pm - - - - - ESE 13 19 7 10 - - -
23/05:00pm - - - - - SE 11 19 6 10 - - -
23/04:30pm - - - - - SSE 11 17 6 9 - - -
23/04:00pm - - - - - SSE 11 17 6 9 - - -
23/03:30pm - - - - - SE 11 17 6 9 - - -
23/03:00pm - - - - - ESE 7 11 4 6 - - -
23/02:30pm - - - - - SE 11 15 6 8 - - -
23/02:00pm - - - - - SE 13 19 7 10 - - -
23/01:30pm - - - - - SSE 11 17 6 9 - - -
23/01:00pm - - - - - SSE 15 20 8 11 - - -
23/12:30pm - - - - - SSE 15 20 8 11 - - -
23/12:00pm - - - - - SSE 15 22 8 12 - - -
23/11:30am - - - - - SSE 15 26 8 14 - - -
23/11:00am - - - - - S 13 20 7 11 - - -
23/10:30am - - - - - SSE 11 17 6 9 - - -
23/10:00am - - - - - S 11 19 6 10 - - -
23/09:30am - - - - - S 11 17 6 9 - - -
23/09:00am - - - - - SSE 9 13 5 7 - - -
23/08:30am - - - - - S 7 13 4 7 - - -
23/08:00am - - - - - SE 9 15 5 8 - - -
23/07:30am - - - - - SSW 7 15 4 8 - - -
23/07:00am - - - - - SSW 11 19 6 10 - - -
23/06:30am - - - - - SW 11 15 6 8 - - -
23/06:00am - - - - - SW 11 15 6 8 - - -
23/05:30am - - - - - SW 7 9 4 5 - - -
23/05:00am - - - - - SW 9 9 5 5 - - -
23/04:30am - - - - - W 4 6 2 3 - - -
23/04:00am - - - - - CALM 0 0 0 0 - - -
23/03:30am - - - - - NW 4 6 2 3 - - -
23/03:00am - - - - - NNW 2 4 1 2 - - -
23/02:30am - - - - - NNW 4 6 2 3 - - -
23/02:00am - - - - - NNW 4 6 2 3 - - -
23/01:30am - - - - - N 6 7 3 4 - - -
23/01:00am - - - - - N 7 11 4 6 - - -
23/12:30am - - - - - NE 11 17 6 9 - - -
23/12:00am - - - - - NE 13 17 7 9 - - -
 
Date/Time
EST
Temp
°C
App
Temp
°C
Dew
Point
°C
Rel
Hum
%
Delta-T
°C
Wind Press
QNH
hPa
Press
MSL
hPa
Rain since
9am
mm
Dir  Spd
km/h
Gust
km/h
Spd
kts
Gust
kts
22/11:30pm - - - - - NE 11 17 6 9 - - -
22/11:00pm - - - - - NE 13 19 7 10 - - -
22/10:30pm - - - - - NE 11 20 6 11 - - -
22/10:00pm - - - - - NE 11 19 6 10 - - -
22/09:30pm - - - - - NE 11 19 6 10 - - -
22/09:00pm - - - - - NE 13 20 7 11 - - -
22/08:30pm - - - - - NE 13 19 7 10 - - -
22/08:00pm - - - - - NE 13 20 7 11 - - -
22/07:30pm - - - - - NE 13 20 7 11 - - -
22/07:00pm - - - - - NE 15 22 8 12 - - -
22/06:30pm - - - - - NE 17 24 9 13 - - -
22/06:00pm - - - - - NE 17 24 9 13 - - -
22/05:30pm - - - - - NE 20 32 11 17 - - -
22/05:00pm - - - - - NE 17 24 9 13 - - -
22/04:30pm - - - - - NE 22 32 12 17 - - -
22/04:00pm - - - - - NE 20 30 11 16 - - -
22/03:30pm - - - - - NE 19 28 10 15 - - -
22/03:00pm - - - - - NE 19 26 10 14 - - -
22/02:30pm - - - - - ENE 17 24 9 13 - - -
22/02:00pm - - - - - NE 13 22 7 12 - - -
22/01:30pm - - - - - NE 13 19 7 10 - - -
22/01:00pm - - - - - NNE 15 24 8 13 - - -
22/12:30pm - - - - - NNE 13 20 7 11 - - -
22/12:00pm - - - - - NNE 13 20 7 11 - - -
22/11:30am - - - - - NNE 13 20 7 11 - - -
22/11:00am - - - - - NNE 15 20 8 11 - - -
22/10:30am - - - - - NNE 13 20 7 11 - - -
22/10:00am - - - - - NNE 15 22 8 12 - - -
22/09:30am - - - - - NNE 13 20 7 11 - - -
22/09:00am - - - - - NNE 9 17 5 9 - - -
22/08:30am - - - - - N 6 13 3 7 - - -
22/08:00am - - - - - WNW 4 6 2 3 - - -
22/07:30am - - - - - NW 7 7 4 4 - - -
22/07:00am - - - - - NNW 6 6 3 3 - - -
22/06:30am - - - - - NW 6 7 3 4 - - -
22/06:00am - - - - - NNE 7 11 4 6 - - -
22/05:30am - - - - - NE 9 15 5 8 - - -
22/05:00am - - - - - NNE 7 11 4 6 - - -
22/04:30am - - - - - NNE 9 11 5 6 - - -
22/04:00am - - - - - NE 9 15 5 8 - - -
22/03:30am - - - - - NNE 11 17 6 9 - - -
22/03:00am - - - - - NNE 9 15 5 8 - - -
22/02:30am - - - - - NNE 9 17 5 9 - - -

Latest Capital City Observations: Canberra | Sydney | Melbourne | Brisbane | Adelaide | Perth | Hobart | Darwin

Other formats

Comma delimited format used in spreadsheet applications
http://www.bom.gov.au/fwo/IDN60901/IDN60901.95768.axf

JavaScript Object Notation format (JSON) in row-major order
http://www.bom.gov.au/fwo/IDN60901/IDN60901.95768.json

Data quality

Most of these data are generated automatically and are frequently updated. Quality checks on data are not normally performed. It is possible for incorrect values to appear. Refer to information at About Latest Weather Observations and please check the disclaimer before using these data.